createdAt,value
2023-02-24T00:02:00.930Z,100.00
2023-02-24T00:04:32.550Z,100.00
2023-02-24T00:07:00.787Z,100.00
2023-02-24T00:09:31.699Z,100.00
2023-02-24T00:12:05.676Z,100.00
2023-02-24T00:14:36.618Z,100.00
2023-02-24T00:17:08.069Z,100.00
2023-02-24T00:19:37.501Z,100.00
2023-02-24T00:22:06.757Z,100.00
2023-02-24T00:24:36.682Z,100.00
2023-02-24T00:27:12.385Z,100.00
2023-02-24T00:29:42.389Z,100.00
2023-02-24T00:32:13.825Z,100.00
2023-02-24T00:34:42.615Z,100.00
2023-02-24T00:37:13.224Z,100.00
2023-02-24T00:39:42.428Z,100.00
2023-02-24T00:42:10.134Z,100.00
2023-02-24T00:44:40.566Z,100.00
2023-02-24T00:47:10.636Z,100.00
2023-02-24T00:49:42.759Z,100.00
2023-02-24T00:52:14.660Z,100.00
2023-02-24T00:54:43.391Z,100.00
2023-02-24T00:57:11.665Z,100.00
2023-02-24T00:59:40.535Z,100.00
2023-02-24T01:02:08.999Z,100.00
2023-02-24T01:04:37.973Z,100.00
2023-02-24T01:07:11.169Z,100.00
2023-02-24T01:09:42.530Z,100.00
2023-02-24T01:12:27.697Z,100.00
2023-02-24T01:14:56.943Z,100.00
2023-02-24T01:17:24.683Z,100.00
2023-02-24T01:20:00.764Z,100.00
2023-02-24T01:22:29.223Z,100.00
2023-02-24T01:24:56.870Z,100.00
2023-02-24T01:27:25.436Z,100.00
2023-02-24T01:29:54.185Z,100.00
2023-02-24T01:32:22.032Z,100.00
2023-02-24T01:34:53.639Z,100.00
2023-02-24T01:37:21.521Z,100.00
2023-02-24T01:39:51.782Z,100.00
2023-02-24T01:42:22.178Z,100.00
2023-02-24T01:44:52.762Z,100.00
2023-02-24T01:47:21.949Z,100.00
2023-02-24T01:49:54.190Z,100.00
2023-02-24T01:52:25.717Z,100.00
2023-02-24T01:55:04.667Z,100.00
2023-02-24T01:57:36.303Z,100.00
2023-02-24T02:00:11.544Z,100.00
2023-02-24T02:02:42.947Z,100.00
2023-02-24T02:05:12.456Z,100.00
2023-02-24T02:07:42.047Z,100.00
2023-02-24T02:10:11.463Z,100.00
2023-02-24T02:12:44.587Z,100.00
2023-02-24T02:15:15.687Z,100.00
2023-02-24T02:17:45.942Z,100.00
2023-02-24T02:20:24.626Z,100.00
2023-02-24T02:23:21.719Z,100.00
2023-02-24T02:26:09.123Z,100.00
2023-02-24T02:28:54.159Z,100.00
2023-02-24T02:31:46.816Z,100.00
2023-02-24T02:34:33.825Z,100.00
2023-02-24T02:37:13.757Z,100.00
2023-02-24T02:40:00.349Z,100.00
2023-02-24T02:42:30.982Z,100.00
2023-02-24T02:45:06.190Z,100.00
2023-02-24T02:47:41.442Z,100.00
2023-02-24T02:50:13.205Z,100.00
2023-02-24T02:52:43.506Z,100.00
2023-02-24T02:55:22.818Z,100.00
2023-02-24T02:57:53.518Z,100.00
2023-02-24T03:00:30.269Z,100.00
2023-02-24T03:03:09.059Z,100.00
2023-02-24T03:05:47.241Z,100.00
2023-02-24T03:08:25.900Z,100.00
2023-02-24T03:10:57.731Z,100.00
2023-02-24T03:13:31.139Z,100.00
2023-02-24T03:16:04.652Z,100.00
2023-02-24T03:18:38.188Z,100.00
2023-02-24T03:21:08.079Z,100.00
2023-02-24T03:23:40.691Z,100.00
2023-02-24T03:26:17.319Z,100.00
2023-02-24T03:29:07.054Z,100.00
2023-02-24T03:31:47.116Z,100.00
2023-02-24T03:34:41.862Z,100.00
2023-02-24T03:37:11.410Z,100.00
2023-02-24T03:39:39.835Z,100.00
2023-02-24T03:42:13.338Z,100.00
2023-02-24T03:44:41.532Z,100.00
2023-02-24T03:47:10.198Z,100.00
2023-02-24T03:49:39.886Z,100.00
2023-02-24T03:52:13.523Z,100.00
2023-02-24T03:55:12.363Z,100.00
2023-02-24T03:57:55.731Z,100.00
2023-02-24T04:00:35.831Z,100.00
2023-02-24T04:03:25.719Z,100.00
2023-02-24T04:06:16.218Z,100.00
2023-02-24T04:08:53.605Z,100.00
2023-02-24T04:11:27.471Z,100.00
2023-02-24T04:14:06.868Z,100.00
2023-02-24T04:16:41.694Z,100.00
2023-02-24T04:19:14.233Z,100.00
2023-02-24T04:21:44.531Z,100.00
2023-02-24T04:24:16.543Z,100.00
2023-02-24T04:26:46.573Z,100.00
2023-02-24T04:29:24.054Z,100.00
2023-02-24T04:31:58.955Z,100.00
2023-02-24T04:34:32.747Z,100.00
2023-02-24T04:37:03.622Z,100.00
2023-02-24T04:39:33.119Z,100.00
2023-02-24T04:42:02.068Z,100.00
2023-02-24T04:44:30.233Z,100.00
2023-02-24T04:46:59.152Z,100.00
2023-02-24T04:49:28.579Z,100.00
2023-02-24T04:51:58.185Z,100.00
2023-02-24T04:54:25.810Z,100.00
2023-02-24T04:56:54.126Z,100.00
2023-02-24T04:59:22.511Z,100.00
2023-02-24T05:01:55.030Z,100.00
2023-02-24T05:04:21.871Z,100.00
2023-02-24T05:06:50.512Z,100.00
2023-02-24T05:09:19.219Z,100.00
2023-02-24T05:11:49.510Z,100.00
2023-02-24T05:14:21.079Z,100.00
2023-02-24T05:16:51.117Z,100.00
2023-02-24T05:19:35.634Z,100.00
2023-02-24T05:22:07.831Z,100.00
2023-02-24T05:24:35.556Z,100.00
2023-02-24T05:27:04.410Z,100.00
2023-02-24T05:29:35.410Z,100.00
2023-02-24T05:32:06.344Z,100.00
2023-02-24T05:34:36.318Z,100.00
2023-02-24T05:37:10.411Z,100.00
2023-02-24T05:39:41.341Z,100.00
2023-02-24T05:42:08.502Z,100.00
2023-02-24T05:44:36.409Z,100.00
2023-02-24T05:47:06.118Z,100.00
2023-02-24T05:49:35.680Z,100.00
2023-02-24T05:52:10.028Z,100.00
2023-02-24T05:54:40.324Z,100.00
2023-02-24T05:57:12.723Z,100.00
2023-02-24T05:59:42.375Z,100.00
2023-02-24T06:02:13.580Z,100.00
2023-02-24T06:04:58.875Z,100.00
2023-02-24T06:07:28.835Z,100.00
2023-02-24T06:09:58.410Z,100.00
2023-02-24T06:12:31.786Z,100.00
2023-02-24T06:15:02.426Z,100.00
2023-02-24T06:17:29.931Z,100.00
2023-02-24T06:19:58.436Z,100.00
2023-02-24T06:22:27.512Z,100.00
2023-02-24T06:24:57.386Z,100.00
2023-02-24T06:27:25.597Z,100.00
2023-02-24T06:29:55.055Z,100.00
2023-02-24T06:32:26.274Z,100.00
2023-02-24T06:34:55.660Z,100.00
2023-02-24T06:37:26.248Z,100.00
2023-02-24T06:39:54.003Z,100.00
2023-02-24T06:42:25.924Z,100.00
2023-02-24T06:44:55.273Z,100.00
2023-02-24T06:47:24.326Z,100.00
2023-02-24T06:49:53.436Z,100.00
2023-02-24T06:52:22.119Z,100.00
2023-02-24T06:54:52.537Z,100.00
2023-02-24T06:57:21.595Z,100.00
2023-02-24T06:59:49.784Z,100.00
2023-02-24T07:02:17.713Z,100.00
2023-02-24T07:04:49.942Z,100.00
2023-02-24T07:07:19.826Z,100.00
2023-02-24T07:09:47.615Z,100.00
2023-02-24T07:12:21.424Z,100.00
2023-02-24T07:14:51.046Z,100.00
2023-02-24T07:17:21.052Z,100.00
2023-02-24T07:19:49.040Z,100.00
2023-02-24T07:22:18.278Z,100.00
2023-02-24T07:24:46.809Z,100.00
2023-02-24T07:27:24.297Z,100.00
2023-02-24T07:29:53.767Z,100.00
2023-02-24T07:32:23.906Z,100.00
2023-02-24T07:34:52.622Z,100.00
2023-02-24T07:37:25.404Z,100.00
2023-02-24T07:39:55.366Z,100.00
2023-02-24T07:42:24.341Z,100.00
2023-02-24T07:44:52.767Z,100.00
2023-02-24T07:47:22.096Z,100.00
2023-02-24T07:49:51.798Z,100.00
2023-02-24T07:52:20.485Z,100.00
2023-02-24T07:54:50.690Z,100.00
2023-02-24T07:57:19.399Z,100.00
2023-02-24T07:59:48.756Z,100.00
2023-02-24T08:02:19.256Z,100.00
2023-02-24T08:04:52.644Z,100.00
2023-02-24T08:07:25.571Z,100.00
2023-02-24T08:10:09.936Z,100.00
2023-02-24T08:12:43.578Z,100.00
2023-02-24T08:15:25.186Z,100.00
2023-02-24T08:18:00.637Z,100.00
2023-02-24T08:20:52.290Z,100.00
2023-02-24T08:23:20.709Z,100.00
2023-02-24T08:25:49.678Z,100.00
2023-02-24T08:28:19.184Z,100.00
2023-02-24T08:30:52.262Z,100.00
2023-02-24T08:33:23.391Z,100.00
2023-02-24T08:36:02.684Z,100.00
2023-02-24T08:38:42.764Z,100.00
2023-02-24T08:41:18.930Z,100.00
2023-02-24T08:43:50.017Z,100.00
2023-02-24T08:46:27.076Z,100.00
2023-02-24T08:48:58.513Z,100.00
2023-02-24T08:51:35.607Z,100.00
2023-02-24T08:54:17.180Z,100.00
2023-02-24T08:56:50.993Z,100.00
2023-02-24T08:59:35.618Z,100.00
2023-02-24T09:02:30.833Z,100.00
2023-02-24T09:05:13.874Z,100.00
2023-02-24T09:07:45.582Z,100.00
2023-02-24T09:10:19.558Z,100.00
2023-02-24T09:12:49.607Z,100.00
2023-02-24T09:15:17.960Z,100.00
2023-02-24T09:17:47.064Z,100.00
2023-02-24T09:20:34.705Z,100.00
2023-02-24T09:23:05.499Z,100.00
2023-02-24T09:25:51.231Z,100.00
2023-02-24T09:28:26.042Z,100.00
2023-02-24T09:30:56.216Z,100.00
2023-02-24T09:33:39.234Z,100.00
2023-02-24T09:36:31.007Z,100.00
2023-02-24T09:39:02.565Z,100.00
2023-02-24T09:41:33.337Z,100.00
2023-02-24T09:44:18.804Z,100.00
2023-02-24T09:46:56.083Z,100.00
2023-02-24T09:49:41.284Z,100.00
2023-02-24T09:52:18.810Z,100.00
2023-02-24T09:55:07.991Z,100.00
2023-02-24T09:58:04.386Z,98.73
2023-02-24T10:00:45.083Z,98.82
2023-02-24T10:03:43.127Z,98.57
2023-02-24T10:06:23.251Z,96.34
2023-02-24T10:09:11.978Z,95.81
2023-02-24T10:11:54.787Z,95.51
2023-02-24T10:14:24.183Z,96.27
2023-02-24T10:17:12.016Z,95.51
2023-02-24T10:19:41.658Z,94.21
2023-02-24T10:22:29.216Z,94.55
2023-02-24T10:25:37.230Z,93.90
2023-02-24T10:28:37.520Z,92.98
2023-02-24T10:31:26.445Z,92.34
2023-02-24T10:34:06.842Z,92.57
2023-02-24T10:36:37.425Z,91.58
2023-02-24T10:39:21.329Z,91.28
2023-02-24T10:41:58.879Z,91.63
2023-02-24T10:44:37.120Z,91.29
2023-02-24T10:47:13.852Z,91.19
2023-02-24T10:49:43.640Z,91.08
2023-02-24T10:52:40.429Z,91.21
2023-02-24T10:55:35.176Z,91.02
2023-02-24T10:58:07.702Z,90.83
2023-02-24T11:01:01.856Z,89.99
2023-02-24T11:03:46.577Z,90.38
2023-02-24T11:06:32.665Z,90.41
2023-02-24T11:09:19.950Z,90.74
2023-02-24T11:12:05.482Z,90.34
2023-02-24T11:15:03.138Z,90.08
2023-02-24T11:17:32.162Z,90.10
2023-02-24T11:20:11.856Z,90.81
2023-02-24T11:22:43.172Z,89.30
2023-02-24T11:25:47.566Z,88.93
2023-02-24T11:28:31.832Z,89.24
2023-02-24T11:31:15.263Z,89.85
2023-02-24T11:34:10.358Z,87.57
2023-02-24T11:36:59.083Z,87.10
2023-02-24T11:39:53.353Z,86.91
2023-02-24T11:42:33.309Z,87.27
2023-02-24T11:45:19.887Z,86.65
2023-02-24T11:48:00.258Z,85.91
2023-02-24T11:50:53.455Z,85.81
2023-02-24T11:53:50.895Z,86.53
2023-02-24T11:56:34.216Z,86.10
2023-02-24T11:59:12.604Z,86.75
2023-02-24T12:01:47.350Z,86.70
2023-02-24T12:04:34.172Z,86.52
2023-02-24T12:07:33.874Z,86.32
2023-02-24T12:10:17.126Z,86.39
2023-02-24T12:12:53.981Z,86.83
2023-02-24T12:15:24.974Z,87.25
2023-02-24T12:17:59.083Z,87.16
2023-02-24T12:20:42.843Z,86.71
2023-02-24T12:23:25.123Z,86.88
2023-02-24T12:26:14.309Z,86.88
2023-02-24T12:29:08.177Z,86.94
2023-02-24T12:31:56.562Z,86.22
2023-02-24T12:34:31.103Z,86.74
2023-02-24T12:37:18.201Z,85.96
2023-02-24T12:40:03.332Z,86.05
2023-02-24T12:42:56.854Z,84.91
2023-02-24T12:45:37.624Z,83.99
2023-02-24T12:48:08.034Z,84.25
2023-02-24T12:50:49.464Z,84.63
2023-02-24T12:53:37.458Z,83.93
2023-02-24T12:56:29.577Z,85.19
2023-02-24T12:59:05.875Z,84.67
2023-02-24T13:01:54.364Z,85.29
2023-02-24T13:04:52.168Z,84.59
2023-02-24T13:07:37.845Z,85.30
2023-02-24T13:10:21.482Z,85.67
2023-02-24T13:12:58.044Z,83.53
2023-02-24T13:15:32.327Z,83.58
2023-02-24T13:18:02.154Z,83.88
2023-02-24T13:20:36.882Z,84.22
2023-02-24T13:23:20.714Z,84.51
2023-02-24T13:25:53.769Z,84.33
2023-02-24T13:28:25.525Z,83.40
2023-02-24T13:31:03.082Z,83.72
2023-02-24T13:33:35.733Z,82.61
2023-02-24T13:36:23.781Z,82.12
2023-02-24T13:39:20.799Z,82.02
2023-02-24T13:41:49.163Z,82.59
2023-02-24T13:44:27.388Z,81.87
2023-02-24T13:47:29.007Z,82.34
2023-02-24T13:50:16.632Z,83.00
2023-02-24T13:52:59.646Z,82.44
2023-02-24T13:55:51.045Z,81.48
2023-02-24T13:58:40.749Z,82.68
2023-02-24T14:01:18.778Z,82.22
2023-02-24T14:04:06.299Z,81.01
2023-02-24T14:06:37.945Z,81.08
2023-02-24T14:09:07.018Z,81.22
2023-02-24T14:11:39.459Z,81.30
2023-02-24T14:14:17.780Z,79.70
2023-02-24T14:16:50.166Z,78.76
2023-02-24T14:19:18.505Z,78.43
2023-02-24T14:21:50.791Z,78.70
2023-02-24T14:24:20.488Z,78.04
2023-02-24T14:26:52.241Z,78.98
2023-02-24T14:29:22.961Z,78.19
2023-02-24T14:31:55.834Z,79.08
2023-02-24T14:34:28.812Z,79.00
2023-02-24T14:37:03.222Z,78.59
2023-02-24T14:39:35.130Z,78.55
2023-02-24T14:42:12.727Z,78.49
2023-02-24T14:44:45.858Z,78.21
2023-02-24T14:47:18.233Z,79.67
2023-02-24T14:50:03.473Z,78.47
2023-02-24T14:52:36.204Z,78.27
2023-02-24T14:55:22.544Z,79.49
2023-02-24T14:58:03.153Z,79.16
2023-02-24T15:00:37.811Z,80.02
2023-02-24T15:03:13.682Z,79.86
2023-02-24T15:05:46.203Z,80.48
2023-02-24T15:08:39.220Z,79.78
2023-02-24T15:11:23.108Z,80.66
2023-02-24T15:13:57.027Z,80.73
2023-02-24T15:16:35.833Z,80.81
2023-02-24T15:19:05.337Z,80.79
2023-02-24T15:21:40.992Z,81.22
2023-02-24T15:24:30.183Z,81.70
2023-02-24T15:27:02.453Z,81.39
2023-02-24T15:29:32.325Z,81.67
2023-02-24T15:32:01.838Z,82.91
2023-02-24T15:34:36.339Z,85.10
2023-02-24T15:37:17.974Z,85.89
2023-02-24T15:39:46.287Z,86.48
2023-02-24T15:42:29.062Z,89.73
2023-02-24T15:44:59.624Z,93.81
2023-02-24T15:47:34.805Z,96.37
2023-02-24T15:50:04.774Z,95.53
2023-02-24T15:52:34.538Z,94.52
2023-02-24T15:55:04.051Z,96.80
2023-02-24T15:57:34.749Z,96.64
2023-02-24T16:00:09.881Z,96.74
2023-02-24T16:02:37.843Z,96.96
2023-02-24T16:05:06.384Z,98.66
2023-02-24T16:07:38.780Z,100.00
2023-02-24T16:10:10.911Z,100.00
2023-02-24T16:12:47.006Z,100.00
2023-02-24T16:15:21.007Z,100.00
2023-02-24T16:17:52.367Z,100.00
2023-02-24T16:20:28.038Z,100.00
2023-02-24T16:22:58.741Z,100.00
2023-02-24T16:25:30.515Z,100.00
2023-02-24T16:27:58.641Z,100.00
2023-02-24T16:30:31.789Z,100.00
2023-02-24T16:33:05.139Z,100.00
2023-02-24T16:35:33.024Z,100.00
2023-02-24T16:38:01.098Z,100.00
2023-02-24T16:40:38.356Z,100.00
2023-02-24T16:43:06.950Z,100.00
2023-02-24T16:45:37.023Z,100.00
2023-02-24T16:48:09.865Z,100.00
2023-02-24T16:50:41.220Z,100.00
2023-02-24T16:53:16.189Z,100.00
2023-02-24T16:55:43.759Z,100.00
2023-02-24T16:58:13.242Z,100.00
2023-02-24T17:00:43.635Z,100.00
2023-02-24T17:03:21.087Z,100.00
2023-02-24T17:05:50.574Z,100.00
2023-02-24T17:08:19.093Z,100.00
2023-02-24T17:10:50.358Z,100.00
2023-02-24T17:13:21.050Z,100.00
2023-02-24T17:15:55.270Z,100.00
2023-02-24T17:18:25.674Z,100.00
2023-02-24T17:20:56.269Z,100.00
2023-02-24T17:23:24.894Z,100.00
2023-02-24T17:25:55.291Z,100.00
2023-02-24T17:28:23.075Z,100.00
2023-02-24T17:30:51.247Z,100.00
2023-02-24T17:33:20.799Z,100.00
2023-02-24T17:35:49.487Z,100.00
2023-02-24T17:38:19.811Z,100.00
2023-02-24T17:40:48.451Z,100.00
2023-02-24T17:43:16.698Z,100.00
2023-02-24T17:45:46.326Z,100.00
2023-02-24T17:48:15.083Z,100.00
2023-02-24T17:50:44.351Z,100.00
2023-02-24T17:53:12.941Z,100.00
2023-02-24T17:55:55.803Z,100.00
2023-02-24T17:58:28.271Z,100.00
2023-02-24T18:00:55.711Z,100.00
2023-02-24T18:03:23.596Z,100.00
2023-02-24T18:05:59.704Z,100.00
2023-02-24T18:08:28.764Z,100.00
2023-02-24T18:11:00.016Z,100.00
2023-02-24T18:13:31.465Z,100.00
2023-02-24T18:16:01.019Z,100.00
2023-02-24T18:18:31.435Z,100.00
2023-02-24T18:21:02.995Z,100.00
2023-02-24T18:23:30.922Z,100.00
2023-02-24T18:26:03.642Z,100.00
2023-02-24T18:28:32.255Z,100.00
2023-02-24T18:31:02.505Z,100.00
2023-02-24T18:33:31.537Z,100.00
2023-02-24T18:36:01.765Z,100.00
2023-02-24T18:38:31.645Z,100.00
2023-02-24T18:41:01.267Z,100.00
2023-02-24T18:43:30.763Z,100.00
2023-02-24T18:46:00.366Z,100.00
2023-02-24T18:48:30.536Z,100.00
2023-02-24T18:50:59.366Z,100.00
2023-02-24T18:53:31.302Z,100.00
2023-02-24T18:56:01.905Z,100.00
2023-02-24T18:58:32.089Z,100.00
2023-02-24T19:00:59.820Z,100.00
2023-02-24T19:03:28.092Z,100.00
2023-02-24T19:05:57.507Z,100.00
2023-02-24T19:08:28.991Z,100.00
2023-02-24T19:10:59.422Z,100.00
2023-02-24T19:13:27.688Z,100.00
2023-02-24T19:15:55.516Z,100.00
2023-02-24T19:18:24.010Z,100.00
2023-02-24T19:20:52.509Z,100.00
2023-02-24T19:23:20.981Z,100.00
2023-02-24T19:25:49.898Z,100.00
2023-02-24T19:28:18.303Z,100.00
2023-02-24T19:31:00.853Z,100.00
2023-02-24T19:33:47.720Z,100.00
2023-02-24T19:36:53.804Z,100.00
2023-02-24T19:39:54.285Z,100.00
2023-02-24T19:43:03.036Z,100.00
2023-02-24T19:46:12.606Z,100.00
2023-02-24T19:49:14.020Z,100.00
2023-02-24T19:52:22.843Z,100.00
2023-02-24T19:55:32.069Z,100.00
2023-02-24T19:58:40.969Z,100.00
2023-02-24T20:01:44.369Z,100.00
2023-02-24T20:04:51.901Z,100.00
2023-02-24T20:07:53.605Z,100.00
2023-02-24T20:11:12.247Z,100.00
2023-02-24T20:14:22.232Z,100.00
2023-02-24T20:17:31.018Z,100.00
2023-02-24T20:20:43.130Z,100.00
2023-02-24T20:23:46.056Z,100.00
2023-02-24T20:26:53.963Z,100.00
2023-02-24T20:29:57.869Z,100.00
2023-02-24T20:33:07.178Z,100.00
2023-02-24T20:36:23.569Z,100.00
2023-02-24T20:39:31.690Z,100.00
2023-02-24T20:42:40.456Z,100.00
2023-02-24T20:45:50.327Z,100.00
2023-02-24T23:10:19.274Z,100.00
2023-02-24T23:13:27.270Z,100.00
2023-02-24T23:16:38.351Z,100.00
2023-02-24T23:19:46.284Z,100.00
2023-02-24T23:22:50.572Z,100.00
2023-02-24T23:25:59.289Z,100.00
2023-02-24T23:28:59.637Z,100.00
2023-02-24T23:32:06.397Z,100.00
2023-02-24T23:35:06.353Z,100.00
2023-02-24T23:38:14.269Z,100.00
2023-02-24T23:41:23.309Z,100.00
2023-02-24T23:44:23.660Z,100.00
2023-02-24T23:47:30.266Z,100.00
2023-02-24T23:50:31.926Z,100.00
2023-02-24T23:53:32.262Z,100.00
2023-02-24T23:56:41.288Z,100.00
2023-02-24T23:59:42.254Z,100.00
